sensor_id;sensor_type;location;lat;lon;timestamp;P1;durP1;ratioP1;P2;durP2;ratioP2
11414;SDS011;5763;42.714;23.244;2022-07-25T00:01:29;8.43;;;7.68;;
11414;SDS011;5763;42.714;23.244;2022-07-25T00:03:56;9.20;;;8.05;;
11414;SDS011;5763;42.714;23.244;2022-07-25T00:06:22;8.55;;;7.78;;
11414;SDS011;5763;42.714;23.244;2022-07-25T00:08:49;9.60;;;7.80;;
11414;SDS011;5763;42.714;23.244;2022-07-25T00:11:16;8.32;;;7.53;;
11414;SDS011;5763;42.714;23.244;2022-07-25T00:13:44;8.95;;;8.15;;
11414;SDS011;5763;42.714;23.244;2022-07-25T00:16:11;9.10;;;8.30;;
11414;SDS011;5763;42.714;23.244;2022-07-25T00:18:38;9.13;;;8.25;;
11414;SDS011;5763;42.714;23.244;2022-07-25T00:21:05;10.23;;;7.78;;
11414;SDS011;5763;42.714;23.244;2022-07-25T00:23:31;9.15;;;7.60;;
11414;SDS011;5763;42.714;23.244;2022-07-25T00:25:58;9.65;;;8.30;;
11414;SDS011;5763;42.714;23.244;2022-07-25T00:28:25;8.57;;;7.68;;
11414;SDS011;5763;42.714;23.244;2022-07-25T00:30:53;9.45;;;8.45;;
11414;SDS011;5763;42.714;23.244;2022-07-25T00:33:20;8.80;;;8.00;;
11414;SDS011;5763;42.714;23.244;2022-07-25T00:35:47;8.98;;;8.07;;
11414;SDS011;5763;42.714;23.244;2022-07-25T00:38:13;8.55;;;7.75;;
11414;SDS011;5763;42.714;23.244;2022-07-25T00:40:40;9.30;;;8.40;;
11414;SDS011;5763;42.714;23.244;2022-07-25T00:43:07;9.25;;;8.35;;
11414;SDS011;5763;42.714;23.244;2022-07-25T00:45:34;10.70;;;8.43;;
11414;SDS011;5763;42.714;23.244;2022-07-25T00:48:02;8.80;;;8.00;;
11414;SDS011;5763;42.714;23.244;2022-07-25T00:50:29;9.63;;;8.32;;
11414;SDS011;5763;42.714;23.244;2022-07-25T00:52:56;8.70;;;7.93;;
11414;SDS011;5763;42.714;23.244;2022-07-25T00:55:23;9.13;;;8.23;;
11414;SDS011;5763;42.714;23.244;2022-07-25T00:57:51;10.07;;;8.48;;
11414;SDS011;5763;42.714;23.244;2022-07-25T01:00:18;9.43;;;8.52;;
11414;SDS011;5763;42.714;23.244;2022-07-25T01:02:45;9.90;;;8.90;;
11414;SDS011;5763;42.714;23.244;2022-07-25T01:05:13;9.30;;;8.40;;
11414;SDS011;5763;42.714;23.244;2022-07-25T01:07:40;9.52;;;8.60;;
11414;SDS011;5763;42.714;23.244;2022-07-25T01:10:07;9.50;;;8.52;;
11414;SDS011;5763;42.714;23.244;2022-07-25T01:15:18;8.93;;;8.20;;
11414;SDS011;5763;42.714;23.244;2022-07-25T01:17:46;9.35;;;8.55;;
11414;SDS011;5763;42.714;23.244;2022-07-25T01:20:15;8.98;;;8.10;;
11414;SDS011;5763;42.714;23.244;2022-07-25T01:22:42;9.23;;;8.43;;
11414;SDS011;5763;42.714;23.244;2022-07-25T01:25:08;9.30;;;8.43;;
11414;SDS011;5763;42.714;23.244;2022-07-25T01:27:35;10.40;;;8.43;;
11414;SDS011;5763;42.714;23.244;2022-07-25T01:30:03;9.43;;;8.43;;
11414;SDS011;5763;42.714;23.244;2022-07-25T01:32:31;9.35;;;8.55;;
11414;SDS011;5763;42.714;23.244;2022-07-25T01:34:58;9.63;;;8.63;;
11414;SDS011;5763;42.714;23.244;2022-07-25T01:37:27;9.25;;;8.50;;
11414;SDS011;5763;42.714;23.244;2022-07-25T01:39:53;9.40;;;8.55;;
11414;SDS011;5763;42.714;23.244;2022-07-25T01:42:20;9.15;;;8.25;;
11414;SDS011;5763;42.714;23.244;2022-07-25T01:44:47;10.00;;;9.10;;
11414;SDS011;5763;42.714;23.244;2022-07-25T01:47:14;9.25;;;8.10;;
11414;SDS011;5763;42.714;23.244;2022-07-25T01:49:42;9.45;;;8.55;;
11414;SDS011;5763;42.714;23.244;2022-07-25T01:52:09;9.15;;;8.25;;
11414;SDS011;5763;42.714;23.244;2022-07-25T01:54:37;9.65;;;8.75;;
11414;SDS011;5763;42.714;23.244;2022-07-25T01:57:04;9.43;;;8.48;;
11414;SDS011;5763;42.714;23.244;2022-07-25T01:59:31;9.63;;;8.80;;
11414;SDS011;5763;42.714;23.244;2022-07-25T02:01:58;9.80;;;8.65;;
11414;SDS011;5763;42.714;23.244;2022-07-25T02:04:25;9.23;;;8.43;;
11414;SDS011;5763;42.714;23.244;2022-07-25T02:06:52;9.18;;;8.38;;
11414;SDS011;5763;42.714;23.244;2022-07-25T02:09:19;9.05;;;8.25;;
11414;SDS011;5763;42.714;23.244;2022-07-25T02:11:47;9.60;;;8.70;;
11414;SDS011;5763;42.714;23.244;2022-07-25T02:14:14;10.40;;;8.10;;
11414;SDS011;5763;42.714;23.244;2022-07-25T02:16:40;9.00;;;8.27;;
11414;SDS011;5763;42.714;23.244;2022-07-25T02:19:07;10.30;;;8.57;;
11414;SDS011;5763;42.714;23.244;2022-07-25T02:21:34;9.10;;;8.30;;
11414;SDS011;5763;42.714;23.244;2022-07-25T02:24:01;9.00;;;8.20;;
11414;SDS011;5763;42.714;23.244;2022-07-25T02:26:28;12.68;;;9.05;;
11414;SDS011;5763;42.714;23.244;2022-07-25T02:28:56;9.50;;;8.50;;
11414;SDS011;5763;42.714;23.244;2022-07-25T02:31:23;10.02;;;9.07;;
11414;SDS011;5763;42.714;23.244;2022-07-25T02:33:49;10.48;;;9.23;;
11414;SDS011;5763;42.714;23.244;2022-07-25T02:36:16;11.23;;;10.13;;
11414;SDS011;5763;42.714;23.244;2022-07-25T02:38:43;9.43;;;8.63;;
11414;SDS011;5763;42.714;23.244;2022-07-25T02:41:10;9.05;;;8.15;;
11414;SDS011;5763;42.714;23.244;2022-07-25T02:43:37;9.60;;;8.43;;
11414;SDS011;5763;42.714;23.244;2022-07-25T02:46:05;9.27;;;8.32;;
11414;SDS011;5763;42.714;23.244;2022-07-25T02:48:31;8.95;;;8.18;;
11414;SDS011;5763;42.714;23.244;2022-07-25T02:50:58;9.32;;;8.48;;
11414;SDS011;5763;42.714;23.244;2022-07-25T02:53:25;9.13;;;8.23;;
11414;SDS011;5763;42.714;23.244;2022-07-25T02:55:52;8.68;;;7.88;;
11414;SDS011;5763;42.714;23.244;2022-07-25T02:58:19;8.82;;;8.02;;
11414;SDS011;5763;42.714;23.244;2022-07-25T03:00:46;11.38;;;8.70;;
11414;SDS011;5763;42.714;23.244;2022-07-25T03:03:14;9.35;;;8.55;;
11414;SDS011;5763;42.714;23.244;2022-07-25T03:05:40;8.80;;;7.90;;
11414;SDS011;5763;42.714;23.244;2022-07-25T03:08:07;9.52;;;8.55;;
11414;SDS011;5763;42.714;23.244;2022-07-25T03:10:34;9.27;;;8.38;;
11414;SDS011;5763;42.714;23.244;2022-07-25T03:13:01;9.20;;;8.40;;
11414;SDS011;5763;42.714;23.244;2022-07-25T03:15:28;9.38;;;8.48;;
11414;SDS011;5763;42.714;23.244;2022-07-25T03:17:55;10.15;;;8.60;;
11414;SDS011;5763;42.714;23.244;2022-07-25T03:20:23;9.32;;;8.45;;
11414;SDS011;5763;42.714;23.244;2022-07-25T03:22:50;11.00;;;8.75;;
11414;SDS011;5763;42.714;23.244;2022-07-25T03:25:17;9.40;;;8.55;;
11414;SDS011;5763;42.714;23.244;2022-07-25T03:27:44;8.90;;;8.10;;
11414;SDS011;5763;42.714;23.244;2022-07-25T03:30:11;9.07;;;8.20;;
11414;SDS011;5763;42.714;23.244;2022-07-25T03:32:38;9.25;;;8.45;;
11414;SDS011;5763;42.714;23.244;2022-07-25T03:35:05;9.70;;;8.80;;
11414;SDS011;5763;42.714;23.244;2022-07-25T03:37:34;9.73;;;8.70;;
11414;SDS011;5763;42.714;23.244;2022-07-25T03:40:01;9.48;;;8.68;;
11414;SDS011;5763;42.714;23.244;2022-07-25T03:42:28;8.77;;;7.97;;
11414;SDS011;5763;42.714;23.244;2022-07-25T03:44:54;9.55;;;8.68;;
11414;SDS011;5763;42.714;23.244;2022-07-25T03:47:21;9.40;;;8.60;;
11414;SDS011;5763;42.714;23.244;2022-07-25T03:49:48;8.93;;;8.05;;
11414;SDS011;5763;42.714;23.244;2022-07-25T03:52:15;9.27;;;7.65;;
11414;SDS011;5763;42.714;23.244;2022-07-25T03:54:43;10.27;;;8.10;;
11414;SDS011;5763;42.714;23.244;2022-07-25T03:57:09;8.45;;;7.65;;
11414;SDS011;5763;42.714;23.244;2022-07-25T03:59:36;9.02;;;8.15;;
11414;SDS011;5763;42.714;23.244;2022-07-25T04:02:04;8.45;;;7.40;;
11414;SDS011;5763;42.714;23.244;2022-07-25T04:04:31;8.52;;;7.82;;
11414;SDS011;5763;42.714;23.244;2022-07-25T04:06:57;8.68;;;7.93;;
11414;SDS011;5763;42.714;23.244;2022-07-25T04:09:24;9.05;;;7.88;;
11414;SDS011;5763;42.714;23.244;2022-07-25T04:11:52;8.88;;;8.02;;
11414;SDS011;5763;42.714;23.244;2022-07-25T04:14:19;8.15;;;6.95;;
11414;SDS011;5763;42.714;23.244;2022-07-25T04:16:46;8.80;;;7.93;;
11414;SDS011;5763;42.714;23.244;2022-07-25T04:19:12;9.45;;;7.90;;
11414;SDS011;5763;42.714;23.244;2022-07-25T04:21:39;8.73;;;7.97;;
11414;SDS011;5763;42.714;23.244;2022-07-25T04:24:06;8.60;;;7.45;;
11414;SDS011;5763;42.714;23.244;2022-07-25T04:26:33;8.85;;;8.05;;
11414;SDS011;5763;42.714;23.244;2022-07-25T04:29:01;9.02;;;8.13;;
11414;SDS011;5763;42.714;23.244;2022-07-25T04:31:28;8.23;;;7.40;;
11414;SDS011;5763;42.714;23.244;2022-07-25T04:33:55;10.07;;;7.55;;
11414;SDS011;5763;42.714;23.244;2022-07-25T04:36:22;8.48;;;7.68;;
11414;SDS011;5763;42.714;23.244;2022-07-25T04:38:49;8.52;;;7.68;;
11414;SDS011;5763;42.714;23.244;2022-07-25T04:41:15;8.45;;;7.65;;
11414;SDS011;5763;42.714;23.244;2022-07-25T04:43:42;7.72;;;6.93;;
11414;SDS011;5763;42.714;23.244;2022-07-25T04:46:10;8.60;;;7.70;;
11414;SDS011;5763;42.714;23.244;2022-07-25T04:48:37;7.38;;;6.78;;
11414;SDS011;5763;42.714;23.244;2022-07-25T04:51:04;7.97;;;6.88;;
11414;SDS011;5763;42.714;23.244;2022-07-25T04:53:31;8.07;;;7.38;;
11414;SDS011;5763;42.714;23.244;2022-07-25T04:55:58;8.25;;;7.15;;
11414;SDS011;5763;42.714;23.244;2022-07-25T04:58:25;7.90;;;7.15;;
11414;SDS011;5763;42.714;23.244;2022-07-25T05:00:52;9.40;;;8.20;;
11414;SDS011;5763;42.714;23.244;2022-07-25T05:03:20;7.97;;;7.18;;
11414;SDS011;5763;42.714;23.244;2022-07-25T05:05:46;8.38;;;7.65;;
11414;SDS011;5763;42.714;23.244;2022-07-25T05:08:13;7.65;;;6.90;;
11414;SDS011;5763;42.714;23.244;2022-07-25T05:10:40;8.35;;;7.65;;
11414;SDS011;5763;42.714;23.244;2022-07-25T05:13:08;8.98;;;8.18;;
11414;SDS011;5763;42.714;23.244;2022-07-25T05:15:35;9.38;;;7.78;;
11414;SDS011;5763;42.714;23.244;2022-07-25T05:18:01;7.75;;;6.95;;
11414;SDS011;5763;42.714;23.244;2022-07-25T05:20:30;8.55;;;7.75;;
11414;SDS011;5763;42.714;23.244;2022-07-25T05:22:57;8.95;;;7.57;;
11414;SDS011;5763;42.714;23.244;2022-07-25T05:25:23;8.43;;;7.30;;
11414;SDS011;5763;42.714;23.244;2022-07-25T05:27:50;9.88;;;7.28;;
11414;SDS011;5763;42.714;23.244;2022-07-25T05:30:18;7.90;;;7.00;;
11414;SDS011;5763;42.714;23.244;2022-07-25T05:32:45;8.13;;;7.00;;
11414;SDS011;5763;42.714;23.244;2022-07-25T05:35:12;7.45;;;6.75;;
11414;SDS011;5763;42.714;23.244;2022-07-25T05:37:41;7.47;;;6.78;;
11414;SDS011;5763;42.714;23.244;2022-07-25T05:40:08;8.98;;;7.35;;
11414;SDS011;5763;42.714;23.244;2022-07-25T05:42:35;7.63;;;6.85;;
11414;SDS011;5763;42.714;23.244;2022-07-25T05:45:02;8.25;;;7.45;;
11414;SDS011;5763;42.714;23.244;2022-07-25T05:47:29;7.80;;;7.00;;
11414;SDS011;5763;42.714;23.244;2022-07-25T05:49:56;9.32;;;7.30;;
11414;SDS011;5763;42.714;23.244;2022-07-25T05:52:23;9.23;;;7.20;;
11414;SDS011;5763;42.714;23.244;2022-07-25T05:54:51;7.70;;;6.97;;
11414;SDS011;5763;42.714;23.244;2022-07-25T05:57:18;7.38;;;6.68;;
11414;SDS011;5763;42.714;23.244;2022-07-25T05:59:45;8.05;;;6.97;;
11414;SDS011;5763;42.714;23.244;2022-07-25T06:02:11;7.78;;;7.03;;
11414;SDS011;5763;42.714;23.244;2022-07-25T06:04:38;9.52;;;6.70;;
11414;SDS011;5763;42.714;23.244;2022-07-25T06:07:05;8.05;;;7.35;;
11414;SDS011;5763;42.714;23.244;2022-07-25T06:09:32;9.93;;;8.07;;
11414;SDS011;5763;42.714;23.244;2022-07-25T06:12:00;8.77;;;7.97;;
11414;SDS011;5763;42.714;23.244;2022-07-25T06:14:27;13.02;;;11.68;;
11414;SDS011;5763;42.714;23.244;2022-07-25T06:16:54;8.02;;;7.22;;
11414;SDS011;5763;42.714;23.244;2022-07-25T06:19:21;8.77;;;7.90;;
11414;SDS011;5763;42.714;23.244;2022-07-25T06:21:48;8.55;;;7.82;;
11414;SDS011;5763;42.714;23.244;2022-07-25T06:24:15;8.18;;;7.25;;
11414;SDS011;5763;42.714;23.244;2022-07-25T06:26:41;8.98;;;8.13;;
11414;SDS011;5763;42.714;23.244;2022-07-25T06:29:10;7.88;;;7.10;;
11414;SDS011;5763;42.714;23.244;2022-07-25T06:31:36;8.57;;;7.68;;
11414;SDS011;5763;42.714;23.244;2022-07-25T06:34:03;7.97;;;7.18;;
11414;SDS011;5763;42.714;23.244;2022-07-25T06:36:30;10.07;;;8.77;;
11414;SDS011;5763;42.714;23.244;2022-07-25T06:38:56;7.63;;;6.90;;
11414;SDS011;5763;42.714;23.244;2022-07-25T06:41:23;7.50;;;6.82;;
11414;SDS011;5763;42.714;23.244;2022-07-25T06:43:50;7.78;;;6.60;;
11414;SDS011;5763;42.714;23.244;2022-07-25T06:46:18;8.65;;;7.82;;
11414;SDS011;5763;42.714;23.244;2022-07-25T06:48:45;9.20;;;7.60;;
11414;SDS011;5763;42.714;23.244;2022-07-25T06:51:11;8.32;;;7.53;;
11414;SDS011;5763;42.714;23.244;2022-07-25T06:53:38;8.32;;;7.55;;
11414;SDS011;5763;42.714;23.244;2022-07-25T06:56:05;9.55;;;8.75;;
11414;SDS011;5763;42.714;23.244;2022-07-25T06:58:32;8.73;;;7.65;;
11414;SDS011;5763;42.714;23.244;2022-07-25T07:00:59;8.43;;;7.57;;
11414;SDS011;5763;42.714;23.244;2022-07-25T07:03:27;8.25;;;7.45;;
11414;SDS011;5763;42.714;23.244;2022-07-25T07:05:54;7.50;;;6.88;;
11414;SDS011;5763;42.714;23.244;2022-07-25T07:08:21;8.25;;;7.55;;
11414;SDS011;5763;42.714;23.244;2022-07-25T07:10:47;7.85;;;7.15;;
11414;SDS011;5763;42.714;23.244;2022-07-25T07:13:14;8.95;;;7.13;;
11414;SDS011;5763;42.714;23.244;2022-07-25T07:15:43;7.40;;;6.80;;
11414;SDS011;5763;42.714;23.244;2022-07-25T07:18:14;8.35;;;7.38;;
11414;SDS011;5763;42.714;23.244;2022-07-25T07:20:42;7.65;;;6.95;;
11414;SDS011;5763;42.714;23.244;2022-07-25T07:23:09;7.90;;;7.10;;
11414;SDS011;5763;42.714;23.244;2022-07-25T07:25:36;8.35;;;7.30;;
11414;SDS011;5763;42.714;23.244;2022-07-25T07:28:03;8.10;;;7.13;;
11414;SDS011;5763;42.714;23.244;2022-07-25T07:30:31;7.95;;;7.18;;
11414;SDS011;5763;42.714;23.244;2022-07-25T07:32:58;8.02;;;7.22;;
11414;SDS011;5763;42.714;23.244;2022-07-25T07:35:24;11.02;;;9.98;;
11414;SDS011;5763;42.714;23.244;2022-07-25T07:37:52;9.02;;;8.23;;
11414;SDS011;5763;42.714;23.244;2022-07-25T07:40:19;8.90;;;7.75;;
11414;SDS011;5763;42.714;23.244;2022-07-25T07:42:48;8.27;;;7.45;;
11414;SDS011;5763;42.714;23.244;2022-07-25T07:45:16;8.52;;;7.72;;
11414;SDS011;5763;42.714;23.244;2022-07-25T07:47:44;9.38;;;8.57;;
11414;SDS011;5763;42.714;23.244;2022-07-25T07:50:13;13.10;;;11.80;;
11414;SDS011;5763;42.714;23.244;2022-07-25T07:52:40;10.50;;;9.05;;
11414;SDS011;5763;42.714;23.244;2022-07-25T07:55:09;7.88;;;7.18;;
11414;SDS011;5763;42.714;23.244;2022-07-25T07:57:53;8.00;;;7.30;;
11414;SDS011;5763;42.714;23.244;2022-07-25T08:00:21;8.68;;;7.88;;
11414;SDS011;5763;42.714;23.244;2022-07-25T08:02:49;9.07;;;8.18;;
11414;SDS011;5763;42.714;23.244;2022-07-25T08:05:20;7.95;;;7.25;;
11414;SDS011;5763;42.714;23.244;2022-07-25T08:07:47;7.82;;;7.15;;
11414;SDS011;5763;42.714;23.244;2022-07-25T08:10:18;7.97;;;7.25;;
11414;SDS011;5763;42.714;23.244;2022-07-25T08:12:46;8.00;;;7.22;;
11414;SDS011;5763;42.714;23.244;2022-07-25T08:15:13;8.50;;;7.65;;
11414;SDS011;5763;42.714;23.244;2022-07-25T08:17:40;8.02;;;7.32;;
11414;SDS011;5763;42.714;23.244;2022-07-25T08:20:08;8.05;;;7.25;;
11414;SDS011;5763;42.714;23.244;2022-07-25T08:22:36;7.45;;;6.75;;
11414;SDS011;5763;42.714;23.244;2022-07-25T08:25:05;8.27;;;7.53;;
11414;SDS011;5763;42.714;23.244;2022-07-25T08:27:34;10.63;;;7.45;;
11414;SDS011;5763;42.714;23.244;2022-07-25T08:30:02;8.38;;;7.68;;
11414;SDS011;5763;42.714;23.244;2022-07-25T08:32:30;8.75;;;7.88;;
11414;SDS011;5763;42.714;23.244;2022-07-25T08:34:57;8.40;;;7.50;;
11414;SDS011;5763;42.714;23.244;2022-07-25T08:37:26;8.25;;;7.43;;
11414;SDS011;5763;42.714;23.244;2022-07-25T08:39:53;8.52;;;7.75;;
11414;SDS011;5763;42.714;23.244;2022-07-25T08:42:20;7.57;;;6.97;;
11414;SDS011;5763;42.714;23.244;2022-07-25T08:44:54;7.50;;;6.85;;
11414;SDS011;5763;42.714;23.244;2022-07-25T08:47:24;7.47;;;6.88;;
11414;SDS011;5763;42.714;23.244;2022-07-25T08:49:52;7.80;;;6.78;;
11414;SDS011;5763;42.714;23.244;2022-07-25T08:52:21;7.88;;;7.18;;
11414;SDS011;5763;42.714;23.244;2022-07-25T08:54:49;7.72;;;6.97;;
11414;SDS011;5763;42.714;23.244;2022-07-25T08:57:16;7.85;;;7.10;;
11414;SDS011;5763;42.714;23.244;2022-07-25T08:59:43;7.88;;;7.15;;
11414;SDS011;5763;42.714;23.244;2022-07-25T09:02:13;7.47;;;6.78;;
11414;SDS011;5763;42.714;23.244;2022-07-25T09:04:40;7.80;;;7.18;;
11414;SDS011;5763;42.714;23.244;2022-07-25T09:07:08;8.43;;;7.13;;
11414;SDS011;5763;42.714;23.244;2022-07-25T09:09:35;7.38;;;6.78;;
11414;SDS011;5763;42.714;23.244;2022-07-25T09:12:04;7.97;;;7.22;;
11414;SDS011;5763;42.714;23.244;2022-07-25T09:14:39;7.82;;;6.38;;
11414;SDS011;5763;42.714;23.244;2022-07-25T09:17:06;8.10;;;7.30;;
11414;SDS011;5763;42.714;23.244;2022-07-25T09:19:34;7.25;;;6.65;;
11414;SDS011;5763;42.714;23.244;2022-07-25T09:22:02;6.93;;;6.32;;
11414;SDS011;5763;42.714;23.244;2022-07-25T09:24:29;7.47;;;6.75;;
11414;SDS011;5763;42.714;23.244;2022-07-25T09:26:57;7.05;;;6.45;;
11414;SDS011;5763;42.714;23.244;2022-07-25T09:29:26;8.10;;;6.85;;
11414;SDS011;5763;42.714;23.244;2022-07-25T09:31:54;7.80;;;6.78;;
11414;SDS011;5763;42.714;23.244;2022-07-25T09:34:33;7.55;;;6.85;;
11414;SDS011;5763;42.714;23.244;2022-07-25T09:37:03;7.22;;;6.50;;
11414;SDS011;5763;42.714;23.244;2022-07-25T09:39:35;7.55;;;6.95;;
11414;SDS011;5763;42.714;23.244;2022-07-25T09:42:18;7.25;;;6.60;;
11414;SDS011;5763;42.714;23.244;2022-07-25T09:44:57;7.45;;;6.78;;
11414;SDS011;5763;42.714;23.244;2022-07-25T09:47:24;9.38;;;6.63;;
11414;SDS011;5763;42.714;23.244;2022-07-25T09:49:53;7.80;;;7.03;;
11414;SDS011;5763;42.714;23.244;2022-07-25T09:52:20;7.57;;;6.97;;
11414;SDS011;5763;42.714;23.244;2022-07-25T09:54:47;7.45;;;6.75;;
11414;SDS011;5763;42.714;23.244;2022-07-25T09:57:14;7.28;;;6.70;;
11414;SDS011;5763;42.714;23.244;2022-07-25T09:59:40;7.38;;;6.68;;
11414;SDS011;5763;42.714;23.244;2022-07-25T10:02:09;6.78;;;6.18;;
11414;SDS011;5763;42.714;23.244;2022-07-25T10:04:45;6.70;;;6.10;;
11414;SDS011;5763;42.714;23.244;2022-07-25T10:07:20;7.22;;;6.63;;
11414;SDS011;5763;42.714;23.244;2022-07-25T10:09:49;7.40;;;6.72;;
11414;SDS011;5763;42.714;23.244;2022-07-25T10:12:20;7.05;;;6.45;;
11414;SDS011;5763;42.714;23.244;2022-07-25T10:15:04;6.93;;;6.25;;
11414;SDS011;5763;42.714;23.244;2022-07-25T10:17:34;7.53;;;6.75;;
11414;SDS011;5763;42.714;23.244;2022-07-25T10:20:02;7.85;;;6.40;;
11414;SDS011;5763;42.714;23.244;2022-07-25T10:22:41;7.03;;;6.13;;
11414;SDS011;5763;42.714;23.244;2022-07-25T10:25:11;7.93;;;6.45;;
11414;SDS011;5763;42.714;23.244;2022-07-25T10:27:41;6.85;;;6.25;;
11414;SDS011;5763;42.714;23.244;2022-07-25T10:30:18;7.20;;;5.68;;
11414;SDS011;5763;42.714;23.244;2022-07-25T10:32:54;6.72;;;6.10;;
11414;SDS011;5763;42.714;23.244;2022-07-25T10:35:22;6.47;;;5.97;;
11414;SDS011;5763;42.714;23.244;2022-07-25T10:37:52;6.25;;;5.78;;
11414;SDS011;5763;42.714;23.244;2022-07-25T10:40:26;5.90;;;5.40;;
11414;SDS011;5763;42.714;23.244;2022-07-25T10:42:56;6.40;;;5.82;;
11414;SDS011;5763;42.714;23.244;2022-07-25T10:45:32;6.47;;;5.97;;
11414;SDS011;5763;42.714;23.244;2022-07-25T10:48:05;6.55;;;6.05;;
11414;SDS011;5763;42.714;23.244;2022-07-25T10:50:33;6.15;;;5.65;;
11414;SDS011;5763;42.714;23.244;2022-07-25T10:53:01;6.18;;;5.50;;
11414;SDS011;5763;42.714;23.244;2022-07-25T10:55:34;6.57;;;5.97;;
11414;SDS011;5763;42.714;23.244;2022-07-25T10:58:01;5.90;;;5.35;;
11414;SDS011;5763;42.714;23.244;2022-07-25T11:00:31;6.43;;;5.82;;
11414;SDS011;5763;42.714;23.244;2022-07-25T11:02:58;5.93;;;5.43;;
11414;SDS011;5763;42.714;23.244;2022-07-25T11:05:26;5.57;;;5.07;;
11414;SDS011;5763;42.714;23.244;2022-07-25T11:07:54;5.80;;;5.30;;
11414;SDS011;5763;42.714;23.244;2022-07-25T11:10:26;6.53;;;5.88;;
11414;SDS011;5763;42.714;23.244;2022-07-25T11:13:01;6.28;;;5.68;;
11414;SDS011;5763;42.714;23.244;2022-07-25T11:15:33;6.35;;;5.35;;
11414;SDS011;5763;42.714;23.244;2022-07-25T11:18:00;6.03;;;5.45;;
11414;SDS011;5763;42.714;23.244;2022-07-25T11:20:27;6.20;;;5.60;;
11414;SDS011;5763;42.714;23.244;2022-07-25T11:22:54;5.90;;;5.40;;
11414;SDS011;5763;42.714;23.244;2022-07-25T11:25:21;6.32;;;5.68;;
11414;SDS011;5763;42.714;23.244;2022-07-25T11:27:54;6.13;;;5.63;;
11414;SDS011;5763;42.714;23.244;2022-07-25T11:30:22;5.85;;;5.30;;
11414;SDS011;5763;42.714;23.244;2022-07-25T11:32:50;6.32;;;5.75;;
11414;SDS011;5763;42.714;23.244;2022-07-25T11:35:19;7.80;;;5.53;;
11414;SDS011;5763;42.714;23.244;2022-07-25T11:37:48;11.02;;;7.22;;
11414;SDS011;5763;42.714;23.244;2022-07-25T11:40:16;6.25;;;5.65;;
11414;SDS011;5763;42.714;23.244;2022-07-25T11:42:44;6.40;;;5.80;;
11414;SDS011;5763;42.714;23.244;2022-07-25T11:45:17;6.50;;;5.93;;
11414;SDS011;5763;42.714;23.244;2022-07-25T11:47:46;6.35;;;5.85;;
11414;SDS011;5763;42.714;23.244;2022-07-25T11:50:27;7.53;;;6.47;;
11414;SDS011;5763;42.714;23.244;2022-07-25T11:52:58;6.75;;;6.20;;
11414;SDS011;5763;42.714;23.244;2022-07-25T11:55:27;7.28;;;6.68;;
11414;SDS011;5763;42.714;23.244;2022-07-25T11:57:57;6.43;;;5.82;;
11414;SDS011;5763;42.714;23.244;2022-07-25T12:00:28;6.57;;;5.97;;
11414;SDS011;5763;42.714;23.244;2022-07-25T12:03:05;6.13;;;5.53;;
11414;SDS011;5763;42.714;23.244;2022-07-25T12:05:32;6.55;;;5.80;;
11414;SDS011;5763;42.714;23.244;2022-07-25T12:08:06;7.40;;;5.45;;
11414;SDS011;5763;42.714;23.244;2022-07-25T12:10:35;5.75;;;5.35;;
11414;SDS011;5763;42.714;23.244;2022-07-25T12:13:02;5.65;;;5.22;;
11414;SDS011;5763;42.714;23.244;2022-07-25T12:15:34;6.45;;;5.95;;
11414;SDS011;5763;42.714;23.244;2022-07-25T12:18:02;6.22;;;5.63;;
11414;SDS011;5763;42.714;23.244;2022-07-25T12:20:31;6.78;;;6.18;;
11414;SDS011;5763;42.714;23.244;2022-07-25T12:22:59;7.45;;;5.75;;
11414;SDS011;5763;42.714;23.244;2022-07-25T12:25:29;6.60;;;6.10;;
11414;SDS011;5763;42.714;23.244;2022-07-25T12:27:56;6.35;;;5.75;;
11414;SDS011;5763;42.714;23.244;2022-07-25T12:30:24;6.95;;;6.40;;
11414;SDS011;5763;42.714;23.244;2022-07-25T12:32:53;7.20;;;6.53;;
11414;SDS011;5763;42.714;23.244;2022-07-25T12:35:20;6.85;;;6.25;;
11414;SDS011;5763;42.714;23.244;2022-07-25T12:37:47;7.00;;;5.53;;
11414;SDS011;5763;42.714;23.244;2022-07-25T12:40:14;6.18;;;5.60;;
11414;SDS011;5763;42.714;23.244;2022-07-25T12:42:41;7.80;;;6.30;;
11414;SDS011;5763;42.714;23.244;2022-07-25T12:45:09;6.47;;;5.97;;
11414;SDS011;5763;42.714;23.244;2022-07-25T12:47:37;6.75;;;6.03;;
11414;SDS011;5763;42.714;23.244;2022-07-25T12:50:06;8.13;;;6.20;;
11414;SDS011;5763;42.714;23.244;2022-07-25T12:52:34;7.60;;;6.88;;
11414;SDS011;5763;42.714;23.244;2022-07-25T12:55:02;6.90;;;6.20;;
11414;SDS011;5763;42.714;23.244;2022-07-25T12:57:29;6.30;;;5.70;;
11414;SDS011;5763;42.714;23.244;2022-07-25T12:59:56;6.55;;;5.90;;
11414;SDS011;5763;42.714;23.244;2022-07-25T13:02:23;6.38;;;5.78;;
11414;SDS011;5763;42.714;23.244;2022-07-25T13:04:49;6.25;;;5.65;;
11414;SDS011;5763;42.714;23.244;2022-07-25T13:07:18;6.88;;;6.13;;
11414;SDS011;5763;42.714;23.244;2022-07-25T13:09:45;6.93;;;6.28;;
11414;SDS011;5763;42.714;23.244;2022-07-25T13:12:12;8.40;;;6.20;;
11414;SDS011;5763;42.714;23.244;2022-07-25T13:14:40;6.55;;;5.95;;
11414;SDS011;5763;42.714;23.244;2022-07-25T13:17:06;7.28;;;6.57;;
11414;SDS011;5763;42.714;23.244;2022-07-25T13:19:33;7.60;;;6.90;;
11414;SDS011;5763;42.714;23.244;2022-07-25T13:22:00;8.13;;;7.40;;
11414;SDS011;5763;42.714;23.244;2022-07-25T13:24:28;7.65;;;6.85;;
11414;SDS011;5763;42.714;23.244;2022-07-25T13:26:55;6.88;;;6.28;;
11414;SDS011;5763;42.714;23.244;2022-07-25T13:29:22;6.43;;;5.90;;
11414;SDS011;5763;42.714;23.244;2022-07-25T13:31:49;6.85;;;6.35;;
11414;SDS011;5763;42.714;23.244;2022-07-25T13:34:15;6.90;;;6.30;;
11414;SDS011;5763;42.714;23.244;2022-07-25T13:36:42;6.55;;;6.05;;
11414;SDS011;5763;42.714;23.244;2022-07-25T13:39:09;6.28;;;5.78;;
11414;SDS011;5763;42.714;23.244;2022-07-25T13:41:37;6.85;;;6.25;;
11414;SDS011;5763;42.714;23.244;2022-07-25T13:44:04;6.60;;;6.10;;
11414;SDS011;5763;42.714;23.244;2022-07-25T13:46:31;5.80;;;5.30;;
11414;SDS011;5763;42.714;23.244;2022-07-25T13:48:58;6.32;;;5.80;;
11414;SDS011;5763;42.714;23.244;2022-07-25T13:51:25;7.22;;;6.45;;
11414;SDS011;5763;42.714;23.244;2022-07-25T13:53:52;7.53;;;6.75;;
11414;SDS011;5763;42.714;23.244;2022-07-25T13:56:18;6.50;;;5.90;;
11414;SDS011;5763;42.714;23.244;2022-07-25T13:58:46;6.63;;;6.03;;
11414;SDS011;5763;42.714;23.244;2022-07-25T14:01:14;7.60;;;6.97;;
11414;SDS011;5763;42.714;23.244;2022-07-25T14:03:40;7.03;;;6.47;;
11414;SDS011;5763;42.714;23.244;2022-07-25T14:06:08;6.95;;;6.25;;
11414;SDS011;5763;42.714;23.244;2022-07-25T14:08:36;7.20;;;6.60;;
11414;SDS011;5763;42.714;23.244;2022-07-25T14:11:04;7.43;;;6.72;;
11414;SDS011;5763;42.714;23.244;2022-07-25T14:13:32;6.80;;;6.10;;
11414;SDS011;5763;42.714;23.244;2022-07-25T14:16:00;6.90;;;6.30;;
11414;SDS011;5763;42.714;23.244;2022-07-25T14:18:27;6.65;;;6.05;;
11414;SDS011;5763;42.714;23.244;2022-07-25T14:20:56;6.13;;;5.63;;
11414;SDS011;5763;42.714;23.244;2022-07-25T14:23:23;6.18;;;5.57;;
11414;SDS011;5763;42.714;23.244;2022-07-25T14:25:50;6.10;;;5.60;;
11414;SDS011;5763;42.714;23.244;2022-07-25T14:28:16;6.35;;;5.78;;
11414;SDS011;5763;42.714;23.244;2022-07-25T14:30:44;6.40;;;5.80;;
11414;SDS011;5763;42.714;23.244;2022-07-25T14:33:12;6.43;;;5.93;;
11414;SDS011;5763;42.714;23.244;2022-07-25T14:35:39;6.18;;;5.60;;
11414;SDS011;5763;42.714;23.244;2022-07-25T14:38:05;6.35;;;5.75;;
11414;SDS011;5763;42.714;23.244;2022-07-25T14:40:33;6.80;;;6.10;;
11414;SDS011;5763;42.714;23.244;2022-07-25T14:43:01;6.93;;;6.32;;
11414;SDS011;5763;42.714;23.244;2022-07-25T14:45:27;6.65;;;6.15;;
11414;SDS011;5763;42.714;23.244;2022-07-25T14:47:54;6.85;;;6.25;;
11414;SDS011;5763;42.714;23.244;2022-07-25T14:50:23;6.45;;;5.85;;
11414;SDS011;5763;42.714;23.244;2022-07-25T14:52:51;6.97;;;5.88;;